Hansa Rendsburg — A8CF4 — position and weather

sailwx.info

Track history (hours):
 
Tides and Currents Weather Stations Pressure Air Temp Water Temp Dewpoint Dewpoint Depression Visibility Wind Speed Wind Dir Waves Ship Positions

Hansa Rendsburg

Last reported at 2016-Jul-18 17:33 UTC. Time now 2016-Jul-25 20:07 UTC.
Position S 09°32' E 146°55'.

Type: Ship (hazmat cat A). MMSI: 636090636.

Date/timePositionNaut miles runAvg speedWind from/ knotsBaromVisibWave heightAir tempDewpointWater temp
2016-Jul-18 17:33S 09°32' E 146°55'1414.0
2016-Jul-18 16:33S 09°32' E 147°09'3 3.1
2016-Jul-18 15:33S 09°28' E 147°09'0 0.0
2016-Jul-18 14:33S 09°28' E 147°09'0 0.0
2016-Jul-18 13:33S 09°28' E 147°09'0 0.0
2016-Jul-18 12:33S 09°28' E 147°09'0 0.0
2016-Jul-18 11:33S 09°28' E 147°09'0 0.0
2016-Jul-18 10:27S 09°28' E 147°09'0 0.0
2016-Jul-18 09:33S 09°28' E 147°09'0 0.0
2016-Jul-18 08:33S 09°28' E 147°09'0 0.0
2016-Jul-18 07:24S 09°28' E 147°09'0 0.0
2016-Jul-18 06:21S 09°28' E 147°09'0 0.0
2016-Jul-18 05:33S 09°28' E 147°09'0 0.0
2016-Jul-18 04:33S 09°28' E 147°09'0 0.0
2016-Jul-18 03:33S 09°28' E 147°09'0 0.0
2016-Jul-18 02:24S 09°28' E 147°09'0 0.0
2016-Jul-18 01:33S 09°28' E 147°09'0 0.0
2016-Jul-18 00:33S 09°28' E 147°09'0 0.0
2016-Jul-17 23:33S 09°28' E 147°09'0 0.0
2016-Jul-17 22:33S 09°28' E 147°09'0 0.0
2016-Jul-17 21:33S 09°28' E 147°09'0 0.0
2016-Jul-17 20:33S 09°28' E 147°09'0 0.0
2016-Jul-17 19:33S 09°28' E 147°09'0 0.0
2016-Jul-17 18:33S 09°28' E 147°09'0 0.0
2016-Jul-17 17:33S 09°28' E 147°09'0 0.0
2016-Jul-17 16:33S 09°28' E 147°09'0 0.3
2016-Jul-17 15:33S 09°28' E 147°09'2 1.9
2016-Jul-17 14:32S 09°30' E 147°10'0 0.0
2016-Jul-17 13:32S 09°30' E 147°10'0 0.0
2016-Jul-17 12:32S 09°30' E 147°10'0 0.0
2016-Jul-17 11:32S 09°30' E 147°10'0 0.1
2016-Jul-17 10:32S 09°30' E 147°10'0 0.0
2016-Jul-17 09:32S 09°30' E 147°10'0 0.0
2016-Jul-17 08:32S 09°30' E 147°10'0 0.0
2016-Jul-17 07:26S 09°30' E 147°10'0 0.0
2016-Jul-17 06:32S 09°30' E 147°10'4 2.2
2016-Jul-17 04:33S 09°34' E 147°08'1110.6
2016-Jul-17 03:33S 09°43' E 147°14'1413.8
2016-Jul-17 02:33S 09°54' E 147°21'  
Track history (hours):
 
Tides and Currents Weather Stations Pressure Air Temp Water Temp Dewpoint Dewpoint Depression Visibility Wind Speed Wind Dir Waves Ship Positions

Hansa Rendsburg

Last reported at 2016-Jul-18 17:33 UTC. Time now 2016-Jul-25 20:07 UTC.
Position S 09°32' E 146°55'.

Type: Ship (hazmat cat A). MMSI: 636090636.

Date/timePositionNaut miles runAvg speedWind from/ knotsBaromVisibWave heightAir tempDewpointWater temp
2016-Jul-18 17:33S 09°32' E 146°55'1414.0
2016-Jul-18 16:33S 09°32' E 147°09'3 3.1
2016-Jul-18 15:33S 09°28' E 147°09'0 0.0
2016-Jul-18 14:33S 09°28' E 147°09'0 0.0
2016-Jul-18 13:33S 09°28' E 147°09'0 0.0
2016-Jul-18 12:33S 09°28' E 147°09'0 0.0
2016-Jul-18 11:33S 09°28' E 147°09'0 0.0
2016-Jul-18 10:27S 09°28' E 147°09'0 0.0
2016-Jul-18 09:33S 09°28' E 147°09'0 0.0
2016-Jul-18 08:33S 09°28' E 147°09'0 0.0
2016-Jul-18 07:24S 09°28' E 147°09'0 0.0
2016-Jul-18 06:21S 09°28' E 147°09'0 0.0
2016-Jul-18 05:33S 09°28' E 147°09'0 0.0
2016-Jul-18 04:33S 09°28' E 147°09'0 0.0
2016-Jul-18 03:33S 09°28' E 147°09'0 0.0
2016-Jul-18 02:24S 09°28' E 147°09'0 0.0
2016-Jul-18 01:33S 09°28' E 147°09'0 0.0
2016-Jul-18 00:33S 09°28' E 147°09'0 0.0
2016-Jul-17 23:33S 09°28' E 147°09'0 0.0
2016-Jul-17 22:33S 09°28' E 147°09'0 0.0
2016-Jul-17 21:33S 09°28' E 147°09'0 0.0
2016-Jul-17 20:33S 09°28' E 147°09'0 0.0
2016-Jul-17 19:33S 09°28' E 147°09'0 0.0
2016-Jul-17 18:33S 09°28' E 147°09'0 0.0
2016-Jul-17 17:33S 09°28' E 147°09'0 0.0
2016-Jul-17 16:33S 09°28' E 147°09'0 0.3
2016-Jul-17 15:33S 09°28' E 147°09'2 1.9
2016-Jul-17 14:32S 09°30' E 147°10'0 0.0
2016-Jul-17 13:32S 09°30' E 147°10'0 0.0
2016-Jul-17 12:32S 09°30' E 147°10'0 0.0
2016-Jul-17 11:32S 09°30' E 147°10'0 0.1
2016-Jul-17 10:32S 09°30' E 147°10'0 0.0
2016-Jul-17 09:32S 09°30' E 147°10'0 0.0
2016-Jul-17 08:32S 09°30' E 147°10'0 0.0
2016-Jul-17 07:26S 09°30' E 147°10'0 0.0
2016-Jul-17 06:32S 09°30' E 147°10'4 2.2
2016-Jul-17 04:33S 09°34' E 147°08'1110.6
2016-Jul-17 03:33S 09°43' E 147°14'1413.8
2016-Jul-17 02:33S 09°54' E 147°21'  

Dump ship's entire track history